Scyoc, Pennsylvania
Current Conditions -  °F | °C
As of 6:53 AM on Monday 24 Nov 2014 (Local Time) from KAOO Reporting Station
Broken Clouds Broken Clouds  
Wind Chill: 53°   Ceiling: 7000
Heat Index: 53°   Visibility: 10mi
Dew Point: 51°   Wind: 7mph
Humidity: 93%   Direction: 200°SSW
Pressure: 29.56"   Gusts: NA
Location:  40.3617°N, 77.6745°W
Report Text: KAOO 241153Z AUTO 20006KT 10SM BKN070 12/11 A2956 RMK AO2 SLP010 60005 70040 T01170106 10128 20100 53003
Loading
Personal Weather Stations






























Interactive Weather Map New forecast layout! Learn more

10-Day Weather Forecast

Advertisements
Track Severe Weather on mobile